sensor_id;sensor_type;location;lat;lon;timestamp;temperature;humidity
67157;SHT31;54086;50.126;8.710;2023-01-15T00:01:40;9.71;96.45
67157;SHT31;54086;50.126;8.710;2023-01-15T00:04:06;9.73;96.34
67157;SHT31;54086;50.126;8.710;2023-01-15T00:06:37;9.71;96.33
67157;SHT31;54086;50.126;8.710;2023-01-15T00:09:04;9.74;96.28
67157;SHT31;54086;50.126;8.710;2023-01-15T00:11:29;9.74;96.34
67157;SHT31;54086;50.126;8.710;2023-01-15T00:13:55;9.74;96.30
67157;SHT31;54086;50.126;8.710;2023-01-15T00:16:22;9.77;96.19
67157;SHT31;54086;50.126;8.710;2023-01-15T00:18:51;9.77;96.31
67157;SHT31;54086;50.126;8.710;2023-01-15T00:21:17;9.79;96.19
67157;SHT31;54086;50.126;8.710;2023-01-15T00:23:44;9.86;95.94
67157;SHT31;54086;50.126;8.710;2023-01-15T00:26:30;9.83;95.95
67157;SHT31;54086;50.126;8.710;2023-01-15T00:29:14;9.86;96.03
67157;SHT31;54086;50.126;8.710;2023-01-15T00:31:40;9.86;96.07
67157;SHT31;54086;50.126;8.710;2023-01-15T00:34:06;9.86;96.05
67157;SHT31;54086;50.126;8.710;2023-01-15T00:36:31;9.84;96.10
67157;SHT31;54086;50.126;8.710;2023-01-15T00:38:57;9.84;96.29
67157;SHT31;54086;50.126;8.710;2023-01-15T00:41:23;9.83;96.35
67157;SHT31;54086;50.126;8.710;2023-01-15T00:43:48;9.83;96.30
67157;SHT31;54086;50.126;8.710;2023-01-15T00:46:14;9.83;96.57
67157;SHT31;54086;50.126;8.710;2023-01-15T00:48:39;9.80;96.76
67157;SHT31;54086;50.126;8.710;2023-01-15T00:51:05;9.76;96.96
67157;SHT31;54086;50.126;8.710;2023-01-15T00:53:30;9.77;96.91
67157;SHT31;54086;50.126;8.710;2023-01-15T00:55:56;9.74;96.92
67157;SHT31;54086;50.126;8.710;2023-01-15T00:58:21;9.77;97.04
67157;SHT31;54086;50.126;8.710;2023-01-15T01:00:55;9.76;97.02
67157;SHT31;54086;50.126;8.710;2023-01-15T01:03:22;9.77;97.08
67157;SHT31;54086;50.126;8.710;2023-01-15T01:05:48;9.76;97.27
67157;SHT31;54086;50.126;8.710;2023-01-15T01:08:14;9.76;97.20
67157;SHT31;54086;50.126;8.710;2023-01-15T01:10:40;9.77;97.30
67157;SHT31;54086;50.126;8.710;2023-01-15T01:13:05;9.74;97.23
67157;SHT31;54086;50.126;8.710;2023-01-15T01:15:35;9.74;97.31
67157;SHT31;54086;50.126;8.710;2023-01-15T01:18:01;9.76;97.38
67157;SHT31;54086;50.126;8.710;2023-01-15T01:20:27;9.74;97.40
67157;SHT31;54086;50.126;8.710;2023-01-15T01:22:52;9.74;97.49
67157;SHT31;54086;50.126;8.710;2023-01-15T01:25:18;9.71;97.63
67157;SHT31;54086;50.126;8.710;2023-01-15T01:27:44;9.76;97.62
67157;SHT31;54086;50.126;8.710;2023-01-15T01:30:10;9.77;97.68
67157;SHT31;54086;50.126;8.710;2023-01-15T01:32:35;9.80;97.58
67157;SHT31;54086;50.126;8.710;2023-01-15T01:35:01;9.79;97.73
67157;SHT31;54086;50.126;8.710;2023-01-15T01:37:26;9.80;97.57
67157;SHT31;54086;50.126;8.710;2023-01-15T01:39:52;9.73;96.99
67157;SHT31;54086;50.126;8.710;2023-01-15T01:42:17;9.73;97.11
67157;SHT31;54086;50.126;8.710;2023-01-15T01:47:24;9.73;96.83
67157;SHT31;54086;50.126;8.710;2023-01-15T01:49:53;9.69;96.89
67157;SHT31;54086;50.126;8.710;2023-01-15T01:52:27;9.64;96.60
67157;SHT31;54086;50.126;8.710;2023-01-15T01:54:54;9.61;95.97
67157;SHT31;54086;50.126;8.710;2023-01-15T01:57:21;9.66;96.02
67157;SHT31;54086;50.126;8.710;2023-01-15T01:59:48;9.60;95.88
67157;SHT31;54086;50.126;8.710;2023-01-15T02:02:15;9.61;95.93
67157;SHT31;54086;50.126;8.710;2023-01-15T02:04:42;9.57;96.07
67157;SHT31;54086;50.126;8.710;2023-01-15T02:07:07;9.57;95.58
67157;SHT31;54086;50.126;8.710;2023-01-15T02:09:33;9.51;94.91
67157;SHT31;54086;50.126;8.710;2023-01-15T02:12:08;9.47;94.92
67157;SHT31;54086;50.126;8.710;2023-01-15T02:14:49;9.44;95.18
67157;SHT31;54086;50.126;8.710;2023-01-15T02:17:43;9.44;95.39
67157;SHT31;54086;50.126;8.710;2023-01-15T02:28:10;9.36;95.53
67157;SHT31;54086;50.126;8.710;2023-01-15T02:30:41;9.38;95.57
67157;SHT31;54086;50.126;8.710;2023-01-15T02:33:13;9.36;95.60
67157;SHT31;54086;50.126;8.710;2023-01-15T02:35:46;9.33;95.37
67157;SHT31;54086;50.126;8.710;2023-01-15T02:38:17;9.11;92.71
67157;SHT31;54086;50.126;8.710;2023-01-15T02:40:44;9.12;92.24
67157;SHT31;54086;50.126;8.710;2023-01-15T02:43:12;9.09;92.32
67157;SHT31;54086;50.126;8.710;2023-01-15T02:45:40;8.99;91.04
67157;SHT31;54086;50.126;8.710;2023-01-15T02:48:15;8.91;90.37
67157;SHT31;54086;50.126;8.710;2023-01-15T02:50:47;8.88;91.50
67157;SHT31;54086;50.126;8.710;2023-01-15T02:53:16;8.81;90.88
67157;SHT31;54086;50.126;8.710;2023-01-15T02:55:45;8.80;91.46
67157;SHT31;54086;50.126;8.710;2023-01-15T02:58:16;8.71;90.61
67157;SHT31;54086;50.126;8.710;2023-01-15T03:00:44;8.70;91.66
67157;SHT31;54086;50.126;8.710;2023-01-15T03:03:20;8.68;91.87
67157;SHT31;54086;50.126;8.710;2023-01-15T03:05:59;8.63;91.17
67157;SHT31;54086;50.126;8.710;2023-01-15T03:08:26;8.60;90.67
67157;SHT31;54086;50.126;8.710;2023-01-15T03:11:21;8.47;90.09
67157;SHT31;54086;50.126;8.710;2023-01-15T03:13:50;8.46;90.40
67157;SHT31;54086;50.126;8.710;2023-01-15T03:16:20;8.39;90.08
67157;SHT31;54086;50.126;8.710;2023-01-15T03:21:47;8.29;90.44
67157;SHT31;54086;50.126;8.710;2023-01-15T03:24:18;8.28;90.78
67157;SHT31;54086;50.126;8.710;2023-01-15T03:26:45;8.29;91.69
67157;SHT31;54086;50.126;8.710;2023-01-15T03:29:11;8.22;91.41
67157;SHT31;54086;50.126;8.710;2023-01-15T03:31:38;8.26;92.05
67157;SHT31;54086;50.126;8.710;2023-01-15T03:34:04;8.17;91.54
67157;SHT31;54086;50.126;8.710;2023-01-15T03:36:31;8.19;91.88
67157;SHT31;54086;50.126;8.710;2023-01-15T03:38:57;8.14;91.99
67157;SHT31;54086;50.126;8.710;2023-01-15T03:41:39;8.07;92.11
67157;SHT31;54086;50.126;8.710;2023-01-15T03:44:09;8.10;92.07
67157;SHT31;54086;50.126;8.710;2023-01-15T03:46:52;8.02;92.04
67157;SHT31;54086;50.126;8.710;2023-01-15T03:55:02;8.00;92.36
67157;SHT31;54086;50.126;8.710;2023-01-15T03:57:36;7.95;92.30
67157;SHT31;54086;50.126;8.710;2023-01-15T04:00:14;7.74;92.11
67157;SHT31;54086;50.126;8.710;2023-01-15T04:02:44;7.81;91.18
67157;SHT31;54086;50.126;8.710;2023-01-15T04:05:10;7.62;91.13
67157;SHT31;54086;50.126;8.710;2023-01-15T04:07:36;7.60;91.43
67157;SHT31;54086;50.126;8.710;2023-01-15T04:10:02;7.47;91.13
67157;SHT31;54086;50.126;8.710;2023-01-15T04:12:31;7.38;90.90
67157;SHT31;54086;50.126;8.710;2023-01-15T04:14:58;7.38;91.46
67157;SHT31;54086;50.126;8.710;2023-01-15T04:17:23;7.38;91.39
67157;SHT31;54086;50.126;8.710;2023-01-15T04:19:48;7.32;91.62
67157;SHT31;54086;50.126;8.710;2023-01-15T04:22:15;7.27;91.69
67157;SHT31;54086;50.126;8.710;2023-01-15T04:24:40;7.16;91.22
67157;SHT31;54086;50.126;8.710;2023-01-15T04:27:06;7.16;91.23
67157;SHT31;54086;50.126;8.710;2023-01-15T04:29:31;7.14;91.54
67157;SHT31;54086;50.126;8.710;2023-01-15T04:31:56;7.20;91.51
67157;SHT31;54086;50.126;8.710;2023-01-15T04:34:26;7.10;90.99
67157;SHT31;54086;50.126;8.710;2023-01-15T04:36:52;7.16;91.39
67157;SHT31;54086;50.126;8.710;2023-01-15T04:39:17;6.99;90.37
67157;SHT31;54086;50.126;8.710;2023-01-15T04:41:43;6.99;90.28
67157;SHT31;54086;50.126;8.710;2023-01-15T04:44:27;6.83;88.99
67157;SHT31;54086;50.126;8.710;2023-01-15T04:46:54;6.78;89.74
67157;SHT31;54086;50.126;8.710;2023-01-15T04:49:20;6.71;89.38
67157;SHT31;54086;50.126;8.710;2023-01-15T04:51:45;6.67;89.55
67157;SHT31;54086;50.126;8.710;2023-01-15T04:54:13;6.62;90.06
67157;SHT31;54086;50.126;8.710;2023-01-15T04:56:40;6.59;90.50
67157;SHT31;54086;50.126;8.710;2023-01-15T04:59:07;6.61;90.78
67157;SHT31;54086;50.126;8.710;2023-01-15T05:01:32;6.48;90.81
67157;SHT31;54086;50.126;8.710;2023-01-15T05:03:57;6.44;90.39
67157;SHT31;54086;50.126;8.710;2023-01-15T05:06:26;6.46;90.39
67157;SHT31;54086;50.126;8.710;2023-01-15T05:08:52;6.49;89.86
67157;SHT31;54086;50.126;8.710;2023-01-15T05:11:17;6.52;89.88
67157;SHT31;54086;50.126;8.710;2023-01-15T05:13:43;6.52;89.40
67157;SHT31;54086;50.126;8.710;2023-01-15T05:16:14;6.46;89.48
67157;SHT31;54086;50.126;8.710;2023-01-15T05:18:41;6.52;89.14
67157;SHT31;54086;50.126;8.710;2023-01-15T05:21:16;6.46;89.13
67157;SHT31;54086;50.126;8.710;2023-01-15T05:23:42;6.44;88.79
67157;SHT31;54086;50.126;8.710;2023-01-15T05:26:08;6.37;89.25
67157;SHT31;54086;50.126;8.710;2023-01-15T05:28:33;6.38;89.91
67157;SHT31;54086;50.126;8.710;2023-01-15T05:31:04;6.38;89.91
67157;SHT31;54086;50.126;8.710;2023-01-15T05:33:31;6.32;90.01
67157;SHT31;54086;50.126;8.710;2023-01-15T05:36:01;6.25;89.66
67157;SHT31;54086;50.126;8.710;2023-01-15T05:38:26;6.24;90.37
67157;SHT31;54086;50.126;8.710;2023-01-15T05:40:51;6.30;90.94
67157;SHT31;54086;50.126;8.710;2023-01-15T05:43:17;6.37;91.02
67157;SHT31;54086;50.126;8.710;2023-01-15T05:45:42;6.25;90.65
67157;SHT31;54086;50.126;8.710;2023-01-15T05:48:07;6.22;90.47
67157;SHT31;54086;50.126;8.710;2023-01-15T05:50:33;6.17;90.70
67157;SHT31;54086;50.126;8.710;2023-01-15T05:52:58;6.18;91.16
67157;SHT31;54086;50.126;8.710;2023-01-15T05:55:23;6.22;90.93
67157;SHT31;54086;50.126;8.710;2023-01-15T05:57:49;6.14;90.49
67157;SHT31;54086;50.126;8.710;2023-01-15T06:00:14;6.16;90.71
67157;SHT31;54086;50.126;8.710;2023-01-15T06:02:40;6.06;89.83
67157;SHT31;54086;50.126;8.710;2023-01-15T06:05:05;5.96;89.99
67157;SHT31;54086;50.126;8.710;2023-01-15T06:07:31;6.00;89.66
67157;SHT31;54086;50.126;8.710;2023-01-15T06:09:56;5.91;89.33
67157;SHT31;54086;50.126;8.710;2023-01-15T06:12:22;5.99;90.71
67157;SHT31;54086;50.126;8.710;2023-01-15T06:14:47;5.96;89.07
67157;SHT31;54086;50.126;8.710;2023-01-15T06:17:12;5.90;89.68
67157;SHT31;54086;50.126;8.710;2023-01-15T06:19:39;5.90;90.27
67157;SHT31;54086;50.126;8.710;2023-01-15T06:22:04;5.94;91.40
67157;SHT31;54086;50.126;8.710;2023-01-15T06:24:30;5.91;90.39
67157;SHT31;54086;50.126;8.710;2023-01-15T06:26:55;6.04;90.63
67157;SHT31;54086;50.126;8.710;2023-01-15T06:29:20;5.97;90.04
67157;SHT31;54086;50.126;8.710;2023-01-15T06:31:46;5.97;90.07
67157;SHT31;54086;50.126;8.710;2023-01-15T06:34:12;5.87;90.46
67157;SHT31;54086;50.126;8.710;2023-01-15T06:36:37;5.87;91.01
67157;SHT31;54086;50.126;8.710;2023-01-15T06:39:03;6.01;90.84
67157;SHT31;54086;50.126;8.710;2023-01-15T06:41:28;5.96;90.71
67157;SHT31;54086;50.126;8.710;2023-01-15T06:44:14;5.91;90.51
67157;SHT31;54086;50.126;8.710;2023-01-15T06:47:13;5.85;90.66
67157;SHT31;54086;50.126;8.710;2023-01-15T06:49:46;5.76;91.11
67157;SHT31;54086;50.126;8.710;2023-01-15T06:52:11;5.87;91.38
67157;SHT31;54086;50.126;8.710;2023-01-15T06:54:36;5.91;91.46
67157;SHT31;54086;50.126;8.710;2023-01-15T06:57:02;5.87;90.87
67157;SHT31;54086;50.126;8.710;2023-01-15T06:59:28;5.90;91.03
67157;SHT31;54086;50.126;8.710;2023-01-15T07:01:54;5.74;90.52
67157;SHT31;54086;50.126;8.710;2023-01-15T07:04:19;5.74;91.37
67157;SHT31;54086;50.126;8.710;2023-01-15T07:06:44;5.79;90.57
67157;SHT31;54086;50.126;8.710;2023-01-15T07:09:11;5.79;90.40
67157;SHT31;54086;50.126;8.710;2023-01-15T07:11:36;5.81;91.13
67157;SHT31;54086;50.126;8.710;2023-01-15T07:14:15;5.83;91.33
67157;SHT31;54086;50.126;8.710;2023-01-15T07:16:40;5.80;91.22
67157;SHT31;54086;50.126;8.710;2023-01-15T07:19:06;5.85;90.76
67157;SHT31;54086;50.126;8.710;2023-01-15T07:21:31;5.89;91.00
67157;SHT31;54086;50.126;8.710;2023-01-15T07:24:00;5.86;91.07
67157;SHT31;54086;50.126;8.710;2023-01-15T07:26:26;5.86;91.59
67157;SHT31;54086;50.126;8.710;2023-01-15T07:28:52;5.83;91.13
67157;SHT31;54086;50.126;8.710;2023-01-15T07:31:18;5.80;91.44
67157;SHT31;54086;50.126;8.710;2023-01-15T07:33:43;5.89;91.60
67157;SHT31;54086;50.126;8.710;2023-01-15T07:36:09;5.86;91.69
67157;SHT31;54086;50.126;8.710;2023-01-15T07:38:34;5.90;91.79
67157;SHT31;54086;50.126;8.710;2023-01-15T07:41:00;5.87;91.65
67157;SHT31;54086;50.126;8.710;2023-01-15T07:43:43;5.94;91.91
67157;SHT31;54086;50.126;8.710;2023-01-15T07:46:28;5.91;91.77
67157;SHT31;54086;50.126;8.710;2023-01-15T07:49:12;5.94;92.08
67157;SHT31;54086;50.126;8.710;2023-01-15T07:51:57;6.00;92.51
67157;SHT31;54086;50.126;8.710;2023-01-15T07:54:22;5.86;92.65
67157;SHT31;54086;50.126;8.710;2023-01-15T07:56:49;5.76;92.59
67157;SHT31;54086;50.126;8.710;2023-01-15T07:59:15;5.69;92.87
67157;SHT31;54086;50.126;8.710;2023-01-15T08:01:40;5.56;93.62
67157;SHT31;54086;50.126;8.710;2023-01-15T08:04:06;5.55;93.76
67157;SHT31;54086;50.126;8.710;2023-01-15T08:06:31;5.53;93.98
67157;SHT31;54086;50.126;8.710;2023-01-15T08:08:56;5.46;94.35
67157;SHT31;54086;50.126;8.710;2023-01-15T08:11:22;5.53;94.12
67157;SHT31;54086;50.126;8.710;2023-01-15T08:14:07;5.49;93.93
67157;SHT31;54086;50.126;8.710;2023-01-15T08:16:52;5.49;94.16
67157;SHT31;54086;50.126;8.710;2023-01-15T08:19:17;5.49;94.26
67157;SHT31;54086;50.126;8.710;2023-01-15T08:21:42;5.49;94.18
67157;SHT31;54086;50.126;8.710;2023-01-15T08:24:08;5.48;94.23
67157;SHT31;54086;50.126;8.710;2023-01-15T08:26:33;5.50;94.35
67157;SHT31;54086;50.126;8.710;2023-01-15T08:28:59;5.53;94.34
67157;SHT31;54086;50.126;8.710;2023-01-15T08:31:24;5.50;94.17
67157;SHT31;54086;50.126;8.710;2023-01-15T08:33:49;5.55;94.40
67157;SHT31;54086;50.126;8.710;2023-01-15T08:36:15;5.55;94.27
67157;SHT31;54086;50.126;8.710;2023-01-15T08:38:42;5.56;93.93
67157;SHT31;54086;50.126;8.710;2023-01-15T08:41:07;5.65;93.27
67157;SHT31;54086;50.126;8.710;2023-01-15T08:43:33;5.62;92.75
67157;SHT31;54086;50.126;8.710;2023-01-15T08:46:00;5.65;92.57
67157;SHT31;54086;50.126;8.710;2023-01-15T08:48:28;5.69;92.43
67157;SHT31;54086;50.126;8.710;2023-01-15T08:50:54;5.74;92.19
67157;SHT31;54086;50.126;8.710;2023-01-15T08:53:19;5.70;91.82
67157;SHT31;54086;50.126;8.710;2023-01-15T08:55:45;5.76;92.47
67157;SHT31;54086;50.126;8.710;2023-01-15T08:58:11;5.83;92.15
67157;SHT31;54086;50.126;8.710;2023-01-15T09:00:36;5.77;91.37
67157;SHT31;54086;50.126;8.710;2023-01-15T09:03:02;5.85;91.64
67157;SHT31;54086;50.126;8.710;2023-01-15T09:05:28;5.85;91.61
67157;SHT31;54086;50.126;8.710;2023-01-15T09:07:56;5.91;91.65
67157;SHT31;54086;50.126;8.710;2023-01-15T09:10:22;5.93;91.30
67157;SHT31;54086;50.126;8.710;2023-01-15T09:12:48;5.94;91.44
67157;SHT31;54086;50.126;8.710;2023-01-15T09:15:13;5.93;91.40
67157;SHT31;54086;50.126;8.710;2023-01-15T09:17:38;5.97;91.81
67157;SHT31;54086;50.126;8.710;2023-01-15T09:20:10;6.01;91.41
67157;SHT31;54086;50.126;8.710;2023-01-15T09:22:36;5.99;91.83
67157;SHT31;54086;50.126;8.710;2023-01-15T09:25:02;5.99;91.55
67157;SHT31;54086;50.126;8.710;2023-01-15T09:27:28;5.96;91.55
67157;SHT31;54086;50.126;8.710;2023-01-15T09:29:54;5.97;91.88
67157;SHT31;54086;50.126;8.710;2023-01-15T09:32:20;5.99;91.66
67157;SHT31;54086;50.126;8.710;2023-01-15T09:34:45;5.91;91.31
67157;SHT31;54086;50.126;8.710;2023-01-15T09:37:11;5.97;91.75
67157;SHT31;54086;50.126;8.710;2023-01-15T09:39:37;5.93;91.52
67157;SHT31;54086;50.126;8.710;2023-01-15T09:53:17;5.99;92.01
67157;SHT31;54086;50.126;8.710;2023-01-15T09:55:47;5.86;91.72
67157;SHT31;54086;50.126;8.710;2023-01-15T09:58:16;5.87;92.19
67157;SHT31;54086;50.126;8.710;2023-01-15T10:00:47;5.79;91.74
67157;SHT31;54086;50.126;8.710;2023-01-15T10:03:24;5.83;91.04
67157;SHT31;54086;50.126;8.710;2023-01-15T10:06:22;5.93;91.34
67157;SHT31;54086;50.126;8.710;2023-01-15T10:08:58;5.91;91.16
67157;SHT31;54086;50.126;8.710;2023-01-15T10:11:30;5.91;91.22
67157;SHT31;54086;50.126;8.710;2023-01-15T10:14:36;5.91;91.23
67157;SHT31;54086;50.126;8.710;2023-01-15T10:17:08;6.04;91.28
67157;SHT31;54086;50.126;8.710;2023-01-15T10:19:38;5.94;90.93
67157;SHT31;54086;50.126;8.710;2023-01-15T10:22:12;5.99;91.27
67157;SHT31;54086;50.126;8.710;2023-01-15T10:24:54;5.99;90.93
67157;SHT31;54086;50.126;8.710;2023-01-15T10:27:24;6.06;90.35
67157;SHT31;54086;50.126;8.710;2023-01-15T10:30:00;6.00;90.04
67157;SHT31;54086;50.126;8.710;2023-01-15T10:35:20;6.03;89.96
67157;SHT31;54086;50.126;8.710;2023-01-15T10:48:56;6.07;87.50
67157;SHT31;54086;50.126;8.710;2023-01-15T10:51:27;6.04;88.33
67157;SHT31;54086;50.126;8.710;2023-01-15T10:56:21;6.10;88.43
67157;SHT31;54086;50.126;8.710;2023-01-15T10:58:55;6.22;87.55
67157;SHT31;54086;50.126;8.710;2023-01-15T11:01:22;6.32;86.64
67157;SHT31;54086;50.126;8.710;2023-01-15T11:03:49;6.25;86.88
67157;SHT31;54086;50.126;8.710;2023-01-15T11:06:18;6.24;86.57
67157;SHT31;54086;50.126;8.710;2023-01-15T11:08:49;6.22;86.86
67157;SHT31;54086;50.126;8.710;2023-01-15T11:11:21;6.13;87.64
67157;SHT31;54086;50.126;8.710;2023-01-15T11:14:07;6.18;87.59
67157;SHT31;54086;50.126;8.710;2023-01-15T11:16:51;6.11;87.12
67157;SHT31;54086;50.126;8.710;2023-01-15T11:19:36;6.00;87.57
67157;SHT31;54086;50.126;8.710;2023-01-15T11:22:17;5.99;87.31
67157;SHT31;54086;50.126;8.710;2023-01-15T11:24:59;5.94;87.28
67157;SHT31;54086;50.126;8.710;2023-01-15T11:27:30;6.17;88.43
67157;SHT31;54086;50.126;8.710;2023-01-15T11:29:59;6.22;87.28
67157;SHT31;54086;50.126;8.710;2023-01-15T11:32:36;6.27;86.76
67157;SHT31;54086;50.126;8.710;2023-01-15T11:35:14;6.37;85.38
67157;SHT31;54086;50.126;8.710;2023-01-15T11:37:40;6.44;85.58
67157;SHT31;54086;50.126;8.710;2023-01-15T11:40:16;6.42;85.61
67157;SHT31;54086;50.126;8.710;2023-01-15T11:42:45;6.48;85.52
67157;SHT31;54086;50.126;8.710;2023-01-15T11:45:30;6.59;84.67
67157;SHT31;54086;50.126;8.710;2023-01-15T11:48:19;6.62;84.18
67157;SHT31;54086;50.126;8.710;2023-01-15T11:51:10;6.65;83.19
67157;SHT31;54086;50.126;8.710;2023-01-15T11:53:43;6.67;82.94
67157;SHT31;54086;50.126;8.710;2023-01-15T11:56:14;6.75;83.82
67157;SHT31;54086;50.126;8.710;2023-01-15T11:58:45;6.72;83.22
67157;SHT31;54086;50.126;8.710;2023-01-15T12:01:13;6.79;82.35
67157;SHT31;54086;50.126;8.710;2023-01-15T12:03:45;6.97;83.22
67157;SHT31;54086;50.126;8.710;2023-01-15T12:06:12;7.04;82.54
67157;SHT31;54086;50.126;8.710;2023-01-15T12:08:50;7.04;82.07
67157;SHT31;54086;50.126;8.710;2023-01-15T12:16:53;7.09;82.47
67157;SHT31;54086;50.126;8.710;2023-01-15T12:24:44;7.19;81.34
67157;SHT31;54086;50.126;8.710;2023-01-15T12:30:01;7.27;80.96
67157;SHT31;54086;50.126;8.710;2023-01-15T12:32:32;7.40;81.22
67157;SHT31;54086;50.126;8.710;2023-01-15T12:35:06;7.14;80.43
67157;SHT31;54086;50.126;8.710;2023-01-15T12:37:44;7.07;80.85
67157;SHT31;54086;50.126;8.710;2023-01-15T12:40:23;7.19;80.47
67157;SHT31;54086;50.126;8.710;2023-01-15T12:42:52;7.27;80.88
67157;SHT31;54086;50.126;8.710;2023-01-15T12:45:42;7.30;80.73
67157;SHT31;54086;50.126;8.710;2023-01-15T12:48:15;7.23;81.48
67157;SHT31;54086;50.126;8.710;2023-01-15T12:50:46;7.19;81.26
67157;SHT31;54086;50.126;8.710;2023-01-15T12:53:23;7.09;81.94
67157;SHT31;54086;50.126;8.710;2023-01-15T13:04:43;7.43;80.21
67157;SHT31;54086;50.126;8.710;2023-01-15T13:09:51;7.32;80.15
67157;SHT31;54086;50.126;8.710;2023-01-15T13:12:17;7.37;80.91
67157;SHT31;54086;50.126;8.710;2023-01-15T13:14:43;7.41;80.41
67157;SHT31;54086;50.126;8.710;2023-01-15T13:17:20;7.26;80.18
67157;SHT31;54086;50.126;8.710;2023-01-15T13:22:44;7.32;79.24
67157;SHT31;54086;50.126;8.710;2023-01-15T13:28:16;7.16;79.09
67157;SHT31;54086;50.126;8.710;2023-01-15T13:33:23;7.14;78.02
67157;SHT31;54086;50.126;8.710;2023-01-15T13:35:53;7.26;77.99
67157;SHT31;54086;50.126;8.710;2023-01-15T13:38:23;7.26;77.96
67157;SHT31;54086;50.126;8.710;2023-01-15T13:40:52;7.31;77.92
67157;SHT31;54086;50.126;8.710;2023-01-15T13:43:32;7.34;78.31
67157;SHT31;54086;50.126;8.710;2023-01-15T13:45:59;7.47;76.94
67157;SHT31;54086;50.126;8.710;2023-01-15T13:48:41;7.55;77.06
67157;SHT31;54086;50.126;8.710;2023-01-15T13:51:23;7.54;77.05
67157;SHT31;54086;50.126;8.710;2023-01-15T13:53:49;7.52;77.58
67157;SHT31;54086;50.126;8.710;2023-01-15T13:56:29;7.35;77.35
67157;SHT31;54086;50.126;8.710;2023-01-15T13:59:00;7.34;77.83
67157;SHT31;54086;50.126;8.710;2023-01-15T14:04:13;7.38;78.07
67157;SHT31;54086;50.126;8.710;2023-01-15T14:06:46;7.40;77.27
67157;SHT31;54086;50.126;8.710;2023-01-15T14:09:32;7.43;76.83
67157;SHT31;54086;50.126;8.710;2023-01-15T14:12:26;7.50;76.50
67157;SHT31;54086;50.126;8.710;2023-01-15T14:18:24;7.31;78.10
67157;SHT31;54086;50.126;8.710;2023-01-15T14:34:58;7.16;80.74
67157;SHT31;54086;50.126;8.710;2023-01-15T14:38:04;7.21;79.05
67157;SHT31;54086;50.126;8.710;2023-01-15T14:40:34;7.26;79.21
67157;SHT31;54086;50.126;8.710;2023-01-15T14:43:16;7.27;79.33
67157;SHT31;54086;50.126;8.710;2023-01-15T14:45:45;7.31;78.19
67157;SHT31;54086;50.126;8.710;2023-01-15T14:50:53;7.31;78.27
67157;SHT31;54086;50.126;8.710;2023-01-15T14:53:48;7.38;78.00
67157;SHT31;54086;50.126;8.710;2023-01-15T14:56:54;7.37;77.88
67157;SHT31;54086;50.126;8.710;2023-01-15T14:59:29;7.40;77.69
67157;SHT31;54086;50.126;8.710;2023-01-15T15:02:04;7.41;77.58
67157;SHT31;54086;50.126;8.710;2023-01-15T15:04:38;7.40;77.19
67157;SHT31;54086;50.126;8.710;2023-01-15T15:07:10;7.40;76.44
67157;SHT31;54086;50.126;8.710;2023-01-15T15:15:27;7.47;76.22
67157;SHT31;54086;50.126;8.710;2023-01-15T15:19:03;7.40;76.08
67157;SHT31;54086;50.126;8.710;2023-01-15T15:21:21;7.37;75.68
67157;SHT31;54086;50.126;8.710;2023-01-15T15:26:38;7.35;76.04
67157;SHT31;54086;50.126;8.710;2023-01-15T15:29:14;7.32;75.54
67157;SHT31;54086;50.126;8.710;2023-01-15T15:31:55;7.40;75.88
67157;SHT31;54086;50.126;8.710;2023-01-15T15:34:30;7.40;75.75
67157;SHT31;54086;50.126;8.710;2023-01-15T15:37:02;7.41;75.88
67157;SHT31;54086;50.126;8.710;2023-01-15T15:39:46;7.35;75.95
67157;SHT31;54086;50.126;8.710;2023-01-15T15:42:30;7.40;75.77
67157;SHT31;54086;50.126;8.710;2023-01-15T15:45:21;7.35;76.11
67157;SHT31;54086;50.126;8.710;2023-01-15T15:48:17;7.31;76.28
67157;SHT31;54086;50.126;8.710;2023-01-15T15:51:03;7.26;75.72
67157;SHT31;54086;50.126;8.710;2023-01-15T15:53:29;7.35;76.41
67157;SHT31;54086;50.126;8.710;2023-01-15T15:55:56;7.38;76.33
67157;SHT31;54086;50.126;8.710;2023-01-15T15:58:30;7.34;75.83
67157;SHT31;54086;50.126;8.710;2023-01-15T16:00:56;7.32;76.12
67157;SHT31;54086;50.126;8.710;2023-01-15T16:03:24;7.23;75.98
67157;SHT31;54086;50.126;8.710;2023-01-15T16:05:59;7.20;76.32
67157;SHT31;54086;50.126;8.710;2023-01-15T16:08:25;7.21;76.27
67157;SHT31;54086;50.126;8.710;2023-01-15T16:11:17;7.17;76.32
67157;SHT31;54086;50.126;8.710;2023-01-15T16:13:48;7.14;76.27
67157;SHT31;54086;50.126;8.710;2023-01-15T16:16:16;7.14;76.65
67157;SHT31;54086;50.126;8.710;2023-01-15T16:18:53;7.13;76.52
67157;SHT31;54086;50.126;8.710;2023-01-15T16:21:27;7.14;76.76
67157;SHT31;54086;50.126;8.710;2023-01-15T16:24:03;7.11;76.97
67157;SHT31;54086;50.126;8.710;2023-01-15T16:26:48;7.07;77.31
67157;SHT31;54086;50.126;8.710;2023-01-15T16:29:21;7.03;77.94
67157;SHT31;54086;50.126;8.710;2023-01-15T16:31:49;6.96;78.49
67157;SHT31;54086;50.126;8.710;2023-01-15T16:34:20;6.93;78.90
67157;SHT31;54086;50.126;8.710;2023-01-15T16:36:47;6.92;79.03
67157;SHT31;54086;50.126;8.710;2023-01-15T16:39:37;6.90;79.34
67157;SHT31;54086;50.126;8.710;2023-01-15T16:42:04;6.89;79.28
67157;SHT31;54086;50.126;8.710;2023-01-15T16:44:53;6.82;79.66
67157;SHT31;54086;50.126;8.710;2023-01-15T16:47:24;6.73;79.88
67157;SHT31;54086;50.126;8.710;2023-01-15T16:49:50;6.68;80.14
67157;SHT31;54086;50.126;8.710;2023-01-15T16:55:37;6.64;80.65
67157;SHT31;54086;50.126;8.710;2023-01-15T17:00:38;6.58;80.79
67157;SHT31;54086;50.126;8.710;2023-01-15T17:03:15;6.55;80.74
67157;SHT31;54086;50.126;8.710;2023-01-15T17:05:42;6.58;80.37
67157;SHT31;54086;50.126;8.710;2023-01-15T17:08:32;6.52;80.24
67157;SHT31;54086;50.126;8.710;2023-01-15T17:11:03;6.48;80.45
67157;SHT31;54086;50.126;8.710;2023-01-15T17:13:36;6.49;80.66
67157;SHT31;54086;50.126;8.710;2023-01-15T17:18:39;6.44;81.40
67157;SHT31;54086;50.126;8.710;2023-01-15T17:21:06;6.41;81.52
67157;SHT31;54086;50.126;8.710;2023-01-15T17:23:36;6.38;81.83
67157;SHT31;54086;50.126;8.710;2023-01-15T17:26:03;6.35;81.82
67157;SHT31;54086;50.126;8.710;2023-01-15T17:28:29;6.34;81.83
67157;SHT31;54086;50.126;8.710;2023-01-15T17:30:58;6.27;81.80
67157;SHT31;54086;50.126;8.710;2023-01-15T17:33:23;6.31;81.91
67157;SHT31;54086;50.126;8.710;2023-01-15T17:35:49;6.32;82.02
67157;SHT31;54086;50.126;8.710;2023-01-15T17:38:15;6.31;82.25
67157;SHT31;54086;50.126;8.710;2023-01-15T17:40:41;6.34;82.23
67157;SHT31;54086;50.126;8.710;2023-01-15T17:43:10;6.35;82.30
67157;SHT31;54086;50.126;8.710;2023-01-15T17:45:36;6.30;82.25
67157;SHT31;54086;50.126;8.710;2023-01-15T17:48:01;6.25;82.29
67157;SHT31;54086;50.126;8.710;2023-01-15T17:50:28;6.21;82.55
67157;SHT31;54086;50.126;8.710;2023-01-15T17:52:53;6.18;82.73
67157;SHT31;54086;50.126;8.710;2023-01-15T17:55:21;6.11;83.10
67157;SHT31;54086;50.126;8.710;2023-01-15T17:58:05;6.11;83.11
67157;SHT31;54086;50.126;8.710;2023-01-15T18:00:51;6.07;83.41
67157;SHT31;54086;50.126;8.710;2023-01-15T18:03:38;6.09;83.45
67157;SHT31;54086;50.126;8.710;2023-01-15T18:06:23;6.09;83.33
67157;SHT31;54086;50.126;8.710;2023-01-15T18:08:52;6.10;83.57